Domingo, 20 de Abril del 2014

portal contactenos mapa del sitio buscar Revisar Correo Corporativo

|Reporte METAR por Reginal » ||Reporte TAF por Reginal » ||Reporte METAR, TAF y SIN覲TICO »

Reporte METAR por Regional

|| La Paz || Santa Cruz || Cochabamba || Beni - Pando ||

Informe METAR emitido cada hora.

Regional La Paz

ESTACIÓN

AEROPUERTO

HORA UTC

DESCRIPCIÓN

SLRY

Reyes

14-18S|67-21W

20:00

SLRY 202000Z 14006KT 6000 -RA BKN006 FEW023CB OVC080 25/24 Q1012 A2991 HR98 CB/N/NW RWY WET INOP=

SLRQ

Rurrenabaque

14-25S|67-29W

20:00

SLRQ 202000Z 14015KT 6000 VCSH FEW008 BKN010 OVC070 25/23 Q1011 A2987 SH/SE/S/SW RETS HR91=

SLAP

Apolo

14-44S|68-24W

-

SLAP WO ATTN=

SLSB

San Borja

14-51S|66-44W

20:00

SLSB 202000Z 11008KT 8000 VCSH BKN015 OVC070 25/22 Q1012 A2989 SH SW W NW HR87 RWY NML=

SLLP

Internaci贸nal El Alto

16-08S|68-10W

20:00

SLLP 202000Z 08009KT 9999 SCT017 FEW020CB BKN200 11/03 Q1036 A3060 627.0 P3483 CB/SH S/SW/NW AC RETS HR59 NOSIG=

SLCN

Chara帽a

17-35S|69-25W

-

SLCN WO ATTN=

SLOR

Oruro

17-57S|67-04W

20:00

SLOR 202000Z 30007KT 9999 -RA SCT017 FEW020CB SCT200 12/05 Q1033 A3052 655.0 CB/ON STN/NE/E/SE RETS AC HR64=

SLUY

Uyuni

20-27S|62-52W

19:00

SLUY 201900Z 33015KT 9999 FEW025 FEW030TCU SCT200 15/M07 Q1032 A3049 657.3 HR21 TCU/NE/E=

Regional Cochabamba

ESTACIÓN

AEROPUERTO

HORA UTC

DESCRIPCIÓN

SLCB

Cochabamba

17-25S|66-10W

20:00

SLCB 202000Z 08010KT 9999 FEW027 FEW030CB SCT200 27/08 Q1022 A3020 749.7 HR29 CB N TCU SW AC FU NOSIG=

SLSU

Sucre

19-00S|65-17W

20:00

SLSU 202000Z 06009KT 9999 SCT020 SCT200 17/09 Q1028 A3038 HR58=

SLPO

Potos铆

19-32S|65-43W

17:00

SLPO 191700Z 06010KT 9999 FEW020 BKN200 16/02 Q1035 A3056 HR45=

SLAG

Monteagudo

19-49S|63-58W

17:00

SLAG 191700Z 00000KT 3000 -DZ BKN008 OVC070 19/18 Q1022 A3018 HR92 RWY CLSD=

SLVM

Villamontes

21-15S|63-24W

17:00

SLVM 201700Z 00000KT 4000 -DZ BKN012 OVC070 22/20 Q1018 A3006 HR90=

SLTJ

Tarija

21-33S|64-42W

20:00

SLTJ 202000Z 23008KT 9999 BKN025 OVC070 20/15 Q1019 A3012 HR71=

SLYA

Yacuiba

21-57S|63-39W

20:00

SLYA 202000Z 00000KT 9999 BKN023 OVC070 24/19 Q1015 A2999 HR77=

SLBJ

Bermejo

22-46S|64-18W

17:00

SLBJ 191700Z 00000KT 5000 -DZ SCT007 BKN013 OVC070 21/20 Q1018 A3006 HR94=

Regional Santa Cruz

ESTACIÓN

AEROPUERTO

HORA UTC

DESCRIPCIÓN

SLAS

Ascenci贸n de Guarayos

15-55S|63-09W

20:00

SLAS 202000Z 00000KT 9999 BKN017 BKN070 OVC200 30/24 Q1013 A2992 HR71 RWY NML=

SLCP

Concepci贸n

16-08S|62-01W

20:00

SLCP 202000Z 00000KT 9999 SCT020 FEW027CB OVC200 29/24 Q1014 A2994 HR72 CB/W RWY NML=

SLJV

San Javier

16-16S|62-28W

20:00

SLJV 202000Z 00000KT 9999 SCT020 BKN200 28/23 Q1012 A2988 HR72 RWY NML=

SLTI

San Mat铆as

16-20S|58-24W

20:00

SLTI 202000Z 00000KT 9999 TS BKN017 FEW030CB OVC200 24/23 Q1015 A2997 HR96 RERA TS/CB S/SW/NW/W RWY WET OPR=

SLSI

San Ignacio de Velasco

16-23S|60-57W

20:00

SLSI 202000Z 00000KT 9999 SCT017 SCT070 29/24 Q1012 A2988 HR68 RWY NML=

SLVR

Internaci贸nal Viru Viru

17-38S|63-08W

20:00

SLVR 202000Z 16009KT 9999 FEW020 FEW025TCU BKN200 26/19 Q1013 A2991 HR64 TCU/E AC NOSIG=

SLET

El Trompillo

17-48S|63-10W

20:00

SLET 202000Z 13007KT 9999 FEW080 BKN200 26/20 Q1012 A29.90 HR68 NOSIG=

SLJE

San Jos茅 de Chiquitos

17-49S|60-44W

18:00

SLJE 201800Z 00000KT 9999 BKN017 32/23 Q1015 A2997 HR57 RWY WET OPR=

SLRB

Robor茅

18-19S|59-45W

20:00

SLRB 202000Z 00000KT 9999 SCT017 BKN070 27/23 Q1015 A2997 HR78 RWY HUM OPR=

SLVG

Valle Grande

18-28S|64-05W

18:00

SLVG 201800Z 15004KT 9999 BKN020 OVC070 17/13 Q1027 A3033 HR81 RWY HUM OPR=

SLPS

Puerto Su谩rez

18-58S|57-49W

20:00

SLPS 202000Z 33005KT 9999 SCT020 32/25 Q1010 A2983 HR68=

SLCA

Camiri

20-00S|63-31W

20:00

SLCA 202000Z 00000KT 9999 OVC027 22/18 Q1017 A3003 HR76 RWY HUM OPR C210=

Regional Beni

ESTACIÓN

AEROPUERTO

HORA UTC

DESCRIPCIÓN

SLGM

Guayaramer铆n

10-49S|65-20W

20:00

SLGM 202000Z 36006KT 7000 TS VCSH SCT017 FEW020CB BKN200 29/24 Q1010 A2985 HR76 CB/TS/SH SW/W=

SLRI

Riberalta

11-00S|66-04W

20:00

SLRI 202000Z 00000KT 8000 VCSH FEW007 SCT017 FEW020CB BKN070 26/24 Q1010 A2984 HR87 RERA CB/SH SE/SW/W=

SLCO

Cobija

11-02S|68-47W

20:00

COR SLCO 202000Z 26006KT 9999 SCT017 FEW020CB SCT070 BKN200 24/24 Q1010 A2984 983.0 HR98 CB/N/NE/NW RETSRA=

SLJO

San Joaquin

13-03S|64-39W

20:00

SLJO 202000Z 18003KT 8000 VCSH SCT017 FEW020CB BKN070 24/22 Q1010 A2985 HR91 CB/SH N/SE RWY OPR C212=

SLMG

San Magdalena

13-15S|64-03W

20:00

SLMG 202000Z 14004KT 9999 -RA FEW007 SCT020 OVC070 24/24 Q1013 A2992 HR97 RETS RWY OPR C207=

SLRA

San Ram贸n

13-15S|64-36W

20:00

SLRA 202000Z 14015KT 7000 VCSH SCT015 FEW023CB OVC070 24/23 Q1012 A2991 HR94 CB/SH N/NE/E/SE RWY OPR PA31=

SLBU

Baures

13-39S|63-42W

20:00

SLBU 202000Z 18006KT 9999 SCT015 OVC070 23/23 Q1013 A2991 HR96 RERA RWY WET OPR C206=

SLSA

Santa Ana de Yacuma

13-45S|65-26W

20:00

SLSA 202000Z 12010KT 9999 SCT017 FEW023CB BKN200 27/23 Q1011 A2986 HR81 CB/SH SW/W=

SLSR

Santa Rosa

14-04S|66-47W

20:00

SLSR 202000Z 12012KT 8000 VCSH BKN015 FEW023CB OVC070 25/23 Q1010 A2983 HR92 RETS CB/SH N/NE/E/SE RWY OPR C212=

SLTR

Trinidad

14-49S|64-54W

20:00

SLTR 202000Z 10004KT 9999 FEW015 FEW020CB BKN200 28/23 Q1011 A2987 993.0 HR74 AC CB N/NE NOSIG=

SLSM

San Ignacio de Moxos

14-57S|65-38W

20:00

SLSM 202000Z 00000KT 9999 SCT015 OVC070 23/22 Q1012 A2989 HR95 RWY OPR C206=